sensor_id;sensor_type;location;lat;lon;timestamp;temperature;humidity
13268;DHT22;6702;47.068;15.458;2023-04-16T00:02:48;7.50;99.90
13268;DHT22;6702;47.068;15.458;2023-04-16T00:05:51;7.50;99.90
13268;DHT22;6702;47.068;15.458;2023-04-16T00:08:58;7.50;99.90
13268;DHT22;6702;47.068;15.458;2023-04-16T00:12:01;7.50;99.90
13268;DHT22;6702;47.068;15.458;2023-04-16T00:15:05;7.50;99.90
13268;DHT22;6702;47.068;15.458;2023-04-16T00:18:08;7.40;99.90
13268;DHT22;6702;47.068;15.458;2023-04-16T00:21:11;7.50;99.90
13268;DHT22;6702;47.068;15.458;2023-04-16T00:24:16;7.50;99.90
13268;DHT22;6702;47.068;15.458;2023-04-16T00:27:19;7.40;99.90
13268;DHT22;6702;47.068;15.458;2023-04-16T00:30:22;7.40;99.90
13268;DHT22;6702;47.068;15.458;2023-04-16T00:33:25;7.40;99.90
13268;DHT22;6702;47.068;15.458;2023-04-16T00:36:28;7.40;99.90
13268;DHT22;6702;47.068;15.458;2023-04-16T00:39:33;7.40;99.90
13268;DHT22;6702;47.068;15.458;2023-04-16T00:42:36;7.30;99.90
13268;DHT22;6702;47.068;15.458;2023-04-16T00:45:39;7.30;99.90
13268;DHT22;6702;47.068;15.458;2023-04-16T00:48:43;7.30;99.90
13268;DHT22;6702;47.068;15.458;2023-04-16T00:51:47;7.30;99.90
13268;DHT22;6702;47.068;15.458;2023-04-16T00:54:51;7.30;99.90
13268;DHT22;6702;47.068;15.458;2023-04-16T00:57:55;7.30;99.90
13268;DHT22;6702;47.068;15.458;2023-04-16T01:00:58;7.30;99.90
13268;DHT22;6702;47.068;15.458;2023-04-16T01:04:02;7.30;99.90
13268;DHT22;6702;47.068;15.458;2023-04-16T01:07:05;7.30;99.90
13268;DHT22;6702;47.068;15.458;2023-04-16T01:10:10;7.30;99.90
13268;DHT22;6702;47.068;15.458;2023-04-16T01:13:13;7.30;99.90
13268;DHT22;6702;47.068;15.458;2023-04-16T01:16:16;7.30;99.90
13268;DHT22;6702;47.068;15.458;2023-04-16T01:19:19;7.20;99.90
13268;DHT22;6702;47.068;15.458;2023-04-16T01:22:24;7.20;99.90
13268;DHT22;6702;47.068;15.458;2023-04-16T01:25:27;7.30;99.90
13268;DHT22;6702;47.068;15.458;2023-04-16T01:28:30;7.20;99.90
13268;DHT22;6702;47.068;15.458;2023-04-16T01:31:33;7.20;99.90
13268;DHT22;6702;47.068;15.458;2023-04-16T01:34:36;7.20;99.90
13268;DHT22;6702;47.068;15.458;2023-04-16T01:37:41;7.30;99.90
13268;DHT22;6702;47.068;15.458;2023-04-16T01:40:44;7.30;99.90
13268;DHT22;6702;47.068;15.458;2023-04-16T01:43:47;7.30;99.90
13268;DHT22;6702;47.068;15.458;2023-04-16T01:46:50;7.30;99.90
13268;DHT22;6702;47.068;15.458;2023-04-16T01:49:53;7.30;99.90
13268;DHT22;6702;47.068;15.458;2023-04-16T01:52:58;7.30;99.90
13268;DHT22;6702;47.068;15.458;2023-04-16T01:56:03;7.30;99.90
13268;DHT22;6702;47.068;15.458;2023-04-16T01:59:06;7.30;99.90
13268;DHT22;6702;47.068;15.458;2023-04-16T02:02:11;7.20;99.90
13268;DHT22;6702;47.068;15.458;2023-04-16T02:05:15;7.20;99.90
13268;DHT22;6702;47.068;15.458;2023-04-16T02:08:20;7.20;99.90
13268;DHT22;6702;47.068;15.458;2023-04-16T02:11:23;7.20;99.90
13268;DHT22;6702;47.068;15.458;2023-04-16T02:14:26;7.20;99.90
13268;DHT22;6702;47.068;15.458;2023-04-16T02:17:29;7.20;99.90
13268;DHT22;6702;47.068;15.458;2023-04-16T02:20:32;7.20;99.90
13268;DHT22;6702;47.068;15.458;2023-04-16T02:23:38;7.20;99.90
13268;DHT22;6702;47.068;15.458;2023-04-16T02:26:42;7.20;99.90
13268;DHT22;6702;47.068;15.458;2023-04-16T02:29:45;7.10;99.90
13268;DHT22;6702;47.068;15.458;2023-04-16T02:32:48;7.10;99.90
13268;DHT22;6702;47.068;15.458;2023-04-16T02:35:52;7.10;99.90
13268;DHT22;6702;47.068;15.458;2023-04-16T02:38:56;7.10;99.90
13268;DHT22;6702;47.068;15.458;2023-04-16T02:42:00;7.10;99.90
13268;DHT22;6702;47.068;15.458;2023-04-16T02:45:04;7.00;99.90
13268;DHT22;6702;47.068;15.458;2023-04-16T02:48:07;7.00;99.90
13268;DHT22;6702;47.068;15.458;2023-04-16T02:51:11;7.00;99.90
13268;DHT22;6702;47.068;15.458;2023-04-16T02:54:15;7.00;99.90
13268;DHT22;6702;47.068;15.458;2023-04-16T02:57:18;7.00;99.90
13268;DHT22;6702;47.068;15.458;2023-04-16T03:00:21;7.00;99.90
13268;DHT22;6702;47.068;15.458;2023-04-16T03:03:25;7.00;99.90
13268;DHT22;6702;47.068;15.458;2023-04-16T03:06:28;7.00;99.90
13268;DHT22;6702;47.068;15.458;2023-04-16T03:09:33;6.90;99.90
13268;DHT22;6702;47.068;15.458;2023-04-16T03:12:36;7.00;99.90
13268;DHT22;6702;47.068;15.458;2023-04-16T03:15:40;6.90;99.90
13268;DHT22;6702;47.068;15.458;2023-04-16T03:18:43;6.90;99.90
13268;DHT22;6702;47.068;15.458;2023-04-16T03:21:46;6.90;99.90
13268;DHT22;6702;47.068;15.458;2023-04-16T03:24:50;7.00;99.90
13268;DHT22;6702;47.068;15.458;2023-04-16T03:27:53;7.00;99.90
13268;DHT22;6702;47.068;15.458;2023-04-16T03:30:57;6.90;99.90
13268;DHT22;6702;47.068;15.458;2023-04-16T03:34:00;7.00;99.90
13268;DHT22;6702;47.068;15.458;2023-04-16T03:37:03;7.00;99.90
13268;DHT22;6702;47.068;15.458;2023-04-16T03:40:09;6.90;99.90
13268;DHT22;6702;47.068;15.458;2023-04-16T03:43:12;7.00;99.90
13268;DHT22;6702;47.068;15.458;2023-04-16T03:46:15;7.00;99.90
13268;DHT22;6702;47.068;15.458;2023-04-16T03:49:18;7.00;99.90
13268;DHT22;6702;47.068;15.458;2023-04-16T03:52:21;7.00;99.90
13268;DHT22;6702;47.068;15.458;2023-04-16T03:55:26;7.00;99.90
13268;DHT22;6702;47.068;15.458;2023-04-16T03:58:30;7.00;99.90
13268;DHT22;6702;47.068;15.458;2023-04-16T04:01:33;7.00;99.90
13268;DHT22;6702;47.068;15.458;2023-04-16T04:04:36;7.00;99.90
13268;DHT22;6702;47.068;15.458;2023-04-16T04:07:39;7.00;99.90
13268;DHT22;6702;47.068;15.458;2023-04-16T04:10:43;6.90;99.90
13268;DHT22;6702;47.068;15.458;2023-04-16T04:13:49;6.90;99.90
13268;DHT22;6702;47.068;15.458;2023-04-16T04:16:52;6.80;99.90
13268;DHT22;6702;47.068;15.458;2023-04-16T04:19:56;6.80;99.90
13268;DHT22;6702;47.068;15.458;2023-04-16T04:23:02;6.90;99.90
13268;DHT22;6702;47.068;15.458;2023-04-16T04:26:07;6.90;99.90
13268;DHT22;6702;47.068;15.458;2023-04-16T04:29:10;6.90;99.90
13268;DHT22;6702;47.068;15.458;2023-04-16T04:32:13;6.90;99.90
13268;DHT22;6702;47.068;15.458;2023-04-16T04:35:17;6.90;99.90
13268;DHT22;6702;47.068;15.458;2023-04-16T04:38:20;6.90;99.90
13268;DHT22;6702;47.068;15.458;2023-04-16T04:41:27;7.00;99.90
13268;DHT22;6702;47.068;15.458;2023-04-16T04:44:30;7.00;99.90
13268;DHT22;6702;47.068;15.458;2023-04-16T04:47:33;7.00;99.90
13268;DHT22;6702;47.068;15.458;2023-04-16T04:50:36;7.00;99.90
13268;DHT22;6702;47.068;15.458;2023-04-16T04:53:40;7.00;99.90
13268;DHT22;6702;47.068;15.458;2023-04-16T04:56:45;7.10;99.90
13268;DHT22;6702;47.068;15.458;2023-04-16T04:59:48;7.10;99.90
13268;DHT22;6702;47.068;15.458;2023-04-16T05:02:51;7.20;99.90
13268;DHT22;6702;47.068;15.458;2023-04-16T05:05:54;7.20;99.90
13268;DHT22;6702;47.068;15.458;2023-04-16T05:08:58;7.20;99.90
13268;DHT22;6702;47.068;15.458;2023-04-16T05:12:03;7.30;99.90
13268;DHT22;6702;47.068;15.458;2023-04-16T05:15:07;7.30;99.90
13268;DHT22;6702;47.068;15.458;2023-04-16T05:18:10;7.40;99.90
13268;DHT22;6702;47.068;15.458;2023-04-16T05:21:13;7.40;99.90
13268;DHT22;6702;47.068;15.458;2023-04-16T05:24:16;7.50;99.90
13268;DHT22;6702;47.068;15.458;2023-04-16T05:27:21;7.60;99.90
13268;DHT22;6702;47.068;15.458;2023-04-16T05:30:24;7.60;99.90
13268;DHT22;6702;47.068;15.458;2023-04-16T05:33:27;7.80;99.90
13268;DHT22;6702;47.068;15.458;2023-04-16T05:36:30;7.80;99.90
13268;DHT22;6702;47.068;15.458;2023-04-16T05:39:33;7.90;99.90
13268;DHT22;6702;47.068;15.458;2023-04-16T05:42:38;8.10;99.90
13268;DHT22;6702;47.068;15.458;2023-04-16T05:45:45;8.20;99.90
13268;DHT22;6702;47.068;15.458;2023-04-16T05:48:49;8.30;99.90
13268;DHT22;6702;47.068;15.458;2023-04-16T05:51:52;8.40;99.90
13268;DHT22;6702;47.068;15.458;2023-04-16T05:54:55;8.60;99.90
13268;DHT22;6702;47.068;15.458;2023-04-16T05:58:00;8.70;99.90
13268;DHT22;6702;47.068;15.458;2023-04-16T06:01:05;8.90;99.90
13268;DHT22;6702;47.068;15.458;2023-04-16T06:04:08;9.00;99.90
13268;DHT22;6702;47.068;15.458;2023-04-16T06:07:11;9.20;99.90
13268;DHT22;6702;47.068;15.458;2023-04-16T06:10:14;9.30;99.90
13268;DHT22;6702;47.068;15.458;2023-04-16T06:13:19;9.40;99.90
13268;DHT22;6702;47.068;15.458;2023-04-16T06:16:22;9.60;99.90
13268;DHT22;6702;47.068;15.458;2023-04-16T06:19:25;9.80;99.90
13268;DHT22;6702;47.068;15.458;2023-04-16T06:22:28;10.10;99.90
13268;DHT22;6702;47.068;15.458;2023-04-16T06:25:31;10.50;99.90
13268;DHT22;6702;47.068;15.458;2023-04-16T06:28:36;10.70;99.90
13268;DHT22;6702;47.068;15.458;2023-04-16T06:31:39;10.80;99.90
13268;DHT22;6702;47.068;15.458;2023-04-16T06:34:42;11.00;99.90
13268;DHT22;6702;47.068;15.458;2023-04-16T06:37:46;11.20;99.90
13268;DHT22;6702;47.068;15.458;2023-04-16T06:40:49;11.40;99.90
13268;DHT22;6702;47.068;15.458;2023-04-16T06:43:53;11.60;99.90
13268;DHT22;6702;47.068;15.458;2023-04-16T06:46:56;11.70;99.90
13268;DHT22;6702;47.068;15.458;2023-04-16T06:50:00;11.80;99.90
13268;DHT22;6702;47.068;15.458;2023-04-16T06:53:03;11.80;99.90
13268;DHT22;6702;47.068;15.458;2023-04-16T06:56:06;11.90;99.90
13268;DHT22;6702;47.068;15.458;2023-04-16T06:59:11;11.80;99.90
13268;DHT22;6702;47.068;15.458;2023-04-16T07:02:14;11.80;99.90
13268;DHT22;6702;47.068;15.458;2023-04-16T07:05:18;11.70;99.90
13268;DHT22;6702;47.068;15.458;2023-04-16T07:08:21;11.70;99.90
13268;DHT22;6702;47.068;15.458;2023-04-16T07:11:24;11.70;99.90
13268;DHT22;6702;47.068;15.458;2023-04-16T07:14:29;11.70;99.90
13268;DHT22;6702;47.068;15.458;2023-04-16T07:17:32;11.70;99.90
13268;DHT22;6702;47.068;15.458;2023-04-16T07:20:35;11.80;99.90
13268;DHT22;6702;47.068;15.458;2023-04-16T07:23:38;11.80;99.90
13268;DHT22;6702;47.068;15.458;2023-04-16T07:26:42;11.90;99.90
13268;DHT22;6702;47.068;15.458;2023-04-16T07:29:46;11.90;99.90
13268;DHT22;6702;47.068;15.458;2023-04-16T07:32:51;11.90;99.90
13268;DHT22;6702;47.068;15.458;2023-04-16T07:35:56;12.10;99.90
13268;DHT22;6702;47.068;15.458;2023-04-16T07:38:59;12.20;99.90
13268;DHT22;6702;47.068;15.458;2023-04-16T07:42:03;12.40;99.70
13268;DHT22;6702;47.068;15.458;2023-04-16T07:45:08;12.40;99.20
13268;DHT22;6702;47.068;15.458;2023-04-16T07:48:11;12.50;99.00
13268;DHT22;6702;47.068;15.458;2023-04-16T07:51:15;12.70;98.90
13268;DHT22;6702;47.068;15.458;2023-04-16T07:54:18;12.90;98.90
13268;DHT22;6702;47.068;15.458;2023-04-16T07:57:21;12.90;98.40
13268;DHT22;6702;47.068;15.458;2023-04-16T08:00:28;12.80;97.90
13268;DHT22;6702;47.068;15.458;2023-04-16T08:03:32;12.60;97.70
13268;DHT22;6702;47.068;15.458;2023-04-16T08:06:35;12.70;98.20
13268;DHT22;6702;47.068;15.458;2023-04-16T08:09:46;12.90;98.20
13268;DHT22;6702;47.068;15.458;2023-04-16T08:12:50;13.30;98.10
13268;DHT22;6702;47.068;15.458;2023-04-16T08:15:54;13.60;96.90
13268;DHT22;6702;47.068;15.458;2023-04-16T08:18:57;13.90;96.60
13268;DHT22;6702;47.068;15.458;2023-04-16T08:22:01;14.10;96.50
13268;DHT22;6702;47.068;15.458;2023-04-16T08:25:05;14.30;95.90
13268;DHT22;6702;47.068;15.458;2023-04-16T08:28:09;14.80;95.40
13268;DHT22;6702;47.068;15.458;2023-04-16T08:31:13;15.00;94.20
13268;DHT22;6702;47.068;15.458;2023-04-16T08:34:16;15.40;93.60
13268;DHT22;6702;47.068;15.458;2023-04-16T08:37:20;15.80;92.50
13268;DHT22;6702;47.068;15.458;2023-04-16T08:40:24;16.00;92.00
13268;DHT22;6702;47.068;15.458;2023-04-16T08:43:32;15.40;91.70
13268;DHT22;6702;47.068;15.458;2023-04-16T08:46:37;15.30;92.50
13268;DHT22;6702;47.068;15.458;2023-04-16T08:49:43;15.40;91.80
13268;DHT22;6702;47.068;15.458;2023-04-16T08:52:50;15.40;91.80
13268;DHT22;6702;47.068;15.458;2023-04-16T08:55:55;15.20;91.70
13268;DHT22;6702;47.068;15.458;2023-04-16T08:59:00;15.10;91.80
13268;DHT22;6702;47.068;15.458;2023-04-16T09:02:08;15.00;92.00
13268;DHT22;6702;47.068;15.458;2023-04-16T09:05:14;15.00;91.90
13268;DHT22;6702;47.068;15.458;2023-04-16T09:08:19;15.00;92.10
13268;DHT22;6702;47.068;15.458;2023-04-16T09:11:22;14.70;91.70
13268;DHT22;6702;47.068;15.458;2023-04-16T09:14:26;14.80;92.30
13268;DHT22;6702;47.068;15.458;2023-04-16T09:17:30;14.90;92.10
13268;DHT22;6702;47.068;15.458;2023-04-16T09:20:34;15.00;92.00
13268;DHT22;6702;47.068;15.458;2023-04-16T09:23:37;14.90;92.10
13268;DHT22;6702;47.068;15.458;2023-04-16T09:26:41;15.00;92.10
13268;DHT22;6702;47.068;15.458;2023-04-16T09:29:45;15.20;91.90
13268;DHT22;6702;47.068;15.458;2023-04-16T09:32:50;15.30;91.30
13268;DHT22;6702;47.068;15.458;2023-04-16T09:35:53;15.30;91.10
13268;DHT22;6702;47.068;15.458;2023-04-16T09:38:57;15.20;91.00
13268;DHT22;6702;47.068;15.458;2023-04-16T09:42:00;15.00;91.10
13268;DHT22;6702;47.068;15.458;2023-04-16T09:45:07;14.80;91.40
13268;DHT22;6702;47.068;15.458;2023-04-16T09:48:12;14.40;92.30
13268;DHT22;6702;47.068;15.458;2023-04-16T09:51:15;14.40;92.50
13268;DHT22;6702;47.068;15.458;2023-04-16T09:54:18;14.60;92.50
13268;DHT22;6702;47.068;15.458;2023-04-16T09:57:23;15.00;92.10
13268;DHT22;6702;47.068;15.458;2023-04-16T10:00:28;15.50;91.50
13268;DHT22;6702;47.068;15.458;2023-04-16T10:03:35;15.60;90.40
13268;DHT22;6702;47.068;15.458;2023-04-16T10:06:39;16.20;90.30
13268;DHT22;6702;47.068;15.458;2023-04-16T10:09:42;16.70;88.90
13268;DHT22;6702;47.068;15.458;2023-04-16T10:12:46;17.00;87.20
13268;DHT22;6702;47.068;15.458;2023-04-16T10:15:49;17.30;85.80
13268;DHT22;6702;47.068;15.458;2023-04-16T10:18:54;17.90;85.90
13268;DHT22;6702;47.068;15.458;2023-04-16T10:21:58;18.50;81.00
13268;DHT22;6702;47.068;15.458;2023-04-16T10:25:02;19.10;77.80
13268;DHT22;6702;47.068;15.458;2023-04-16T10:28:06;19.30;74.80
13268;DHT22;6702;47.068;15.458;2023-04-16T10:31:11;19.20;73.60
13268;DHT22;6702;47.068;15.458;2023-04-16T10:34:17;19.10;72.00
13268;DHT22;6702;47.068;15.458;2023-04-16T10:37:28;19.10;71.20
13268;DHT22;6702;47.068;15.458;2023-04-16T10:40:32;18.90;71.10
13268;DHT22;6702;47.068;15.458;2023-04-16T10:43:39;18.60;71.50
13268;DHT22;6702;47.068;15.458;2023-04-16T10:46:44;18.20;74.50
13268;DHT22;6702;47.068;15.458;2023-04-16T10:49:52;17.60;76.40
13268;DHT22;6702;47.068;15.458;2023-04-16T10:53:16;17.20;78.00
13268;DHT22;6702;47.068;15.458;2023-04-16T10:56:23;17.30;79.80
13268;DHT22;6702;47.068;15.458;2023-04-16T10:59:30;17.90;78.80
13268;DHT22;6702;47.068;15.458;2023-04-16T11:02:34;18.40;77.30
13268;DHT22;6702;47.068;15.458;2023-04-16T11:05:45;18.60;75.10
13268;DHT22;6702;47.068;15.458;2023-04-16T11:08:50;18.60;71.40
13268;DHT22;6702;47.068;15.458;2023-04-16T11:11:56;18.40;71.70
13268;DHT22;6702;47.068;15.458;2023-04-16T11:15:00;18.20;72.50
13268;DHT22;6702;47.068;15.458;2023-04-16T11:18:04;18.10;74.60
13268;DHT22;6702;47.068;15.458;2023-04-16T11:21:10;18.20;73.30
13268;DHT22;6702;47.068;15.458;2023-04-16T11:24:14;18.50;74.40
13268;DHT22;6702;47.068;15.458;2023-04-16T11:27:17;18.80;70.70
13268;DHT22;6702;47.068;15.458;2023-04-16T11:30:28;19.20;69.30
13268;DHT22;6702;47.068;15.458;2023-04-16T11:33:31;19.40;65.00
13268;DHT22;6702;47.068;15.458;2023-04-16T11:36:43;19.40;65.00
13268;DHT22;6702;47.068;15.458;2023-04-16T11:39:48;19.40;66.70
13268;DHT22;6702;47.068;15.458;2023-04-16T11:42:51;19.40;65.90
13268;DHT22;6702;47.068;15.458;2023-04-16T11:45:58;19.30;66.30
13268;DHT22;6702;47.068;15.458;2023-04-16T11:49:14;19.30;65.80
13268;DHT22;6702;47.068;15.458;2023-04-16T11:52:26;19.40;63.90
13268;DHT22;6702;47.068;15.458;2023-04-16T11:55:30;19.50;62.80
13268;DHT22;6702;47.068;15.458;2023-04-16T11:58:33;19.50;62.10
13268;DHT22;6702;47.068;15.458;2023-04-16T12:01:37;19.40;61.30
13268;DHT22;6702;47.068;15.458;2023-04-16T12:04:41;19.10;61.40
13268;DHT22;6702;47.068;15.458;2023-04-16T12:07:45;18.70;63.10
13268;DHT22;6702;47.068;15.458;2023-04-16T12:10:53;18.10;64.10
13268;DHT22;6702;47.068;15.458;2023-04-16T12:14:06;17.60;66.20
13268;DHT22;6702;47.068;15.458;2023-04-16T12:17:17;17.10;67.30
13268;DHT22;6702;47.068;15.458;2023-04-16T12:20:20;16.80;70.30
13268;DHT22;6702;47.068;15.458;2023-04-16T12:23:26;16.40;71.40
13268;DHT22;6702;47.068;15.458;2023-04-16T12:26:36;16.20;73.00
13268;DHT22;6702;47.068;15.458;2023-04-16T12:29:40;16.20;74.20
13268;DHT22;6702;47.068;15.458;2023-04-16T12:32:44;16.20;74.40
13268;DHT22;6702;47.068;15.458;2023-04-16T12:35:48;16.20;72.50
13268;DHT22;6702;47.068;15.458;2023-04-16T12:38:53;16.10;71.20
13268;DHT22;6702;47.068;15.458;2023-04-16T12:41:56;16.00;72.20
13268;DHT22;6702;47.068;15.458;2023-04-16T12:44:59;16.10;72.40
13268;DHT22;6702;47.068;15.458;2023-04-16T12:48:02;16.20;71.30
13268;DHT22;6702;47.068;15.458;2023-04-16T12:51:05;16.40;71.70
13268;DHT22;6702;47.068;15.458;2023-04-16T12:54:10;16.90;70.10
13268;DHT22;6702;47.068;15.458;2023-04-16T12:57:13;17.30;68.20
13268;DHT22;6702;47.068;15.458;2023-04-16T13:00:18;17.70;66.50
13268;DHT22;6702;47.068;15.458;2023-04-16T13:03:21;17.80;65.70
13268;DHT22;6702;47.068;15.458;2023-04-16T13:06:25;17.50;66.70
13268;DHT22;6702;47.068;15.458;2023-04-16T13:09:33;16.90;70.00
13268;DHT22;6702;47.068;15.458;2023-04-16T13:12:40;16.40;71.80
13268;DHT22;6702;47.068;15.458;2023-04-16T13:15:43;15.80;73.10
13268;DHT22;6702;47.068;15.458;2023-04-16T13:18:46;15.40;75.20
13268;DHT22;6702;47.068;15.458;2023-04-16T13:21:50;15.40;75.60
13268;DHT22;6702;47.068;15.458;2023-04-16T13:24:55;15.30;75.90
13268;DHT22;6702;47.068;15.458;2023-04-16T13:27:58;15.30;75.40
13268;DHT22;6702;47.068;15.458;2023-04-16T13:31:01;15.00;74.70
13268;DHT22;6702;47.068;15.458;2023-04-16T13:34:06;14.80;75.60
13268;DHT22;6702;47.068;15.458;2023-04-16T13:37:09;14.50;76.70
13268;DHT22;6702;47.068;15.458;2023-04-16T13:40:14;14.40;78.30
13268;DHT22;6702;47.068;15.458;2023-04-16T13:43:18;14.30;79.40
13268;DHT22;6702;47.068;15.458;2023-04-16T13:46:23;14.30;81.00
13268;DHT22;6702;47.068;15.458;2023-04-16T13:49:26;14.30;81.20
13268;DHT22;6702;47.068;15.458;2023-04-16T13:52:29;14.30;79.10
13268;DHT22;6702;47.068;15.458;2023-04-16T13:55:34;14.30;79.10
13268;DHT22;6702;47.068;15.458;2023-04-16T13:58:38;14.30;80.20
13268;DHT22;6702;47.068;15.458;2023-04-16T14:01:41;14.40;79.20
13268;DHT22;6702;47.068;15.458;2023-04-16T14:04:45;14.40;79.20
13268;DHT22;6702;47.068;15.458;2023-04-16T14:07:48;14.60;79.50
13268;DHT22;6702;47.068;15.458;2023-04-16T14:10:53;14.70;79.40
13268;DHT22;6702;47.068;15.458;2023-04-16T14:13:57;14.90;79.10
13268;DHT22;6702;47.068;15.458;2023-04-16T14:17:01;15.10;78.00
13268;DHT22;6702;47.068;15.458;2023-04-16T14:20:05;15.20;77.20
13268;DHT22;6702;47.068;15.458;2023-04-16T14:23:08;15.30;78.50
13268;DHT22;6702;47.068;15.458;2023-04-16T14:26:14;15.50;76.30
13268;DHT22;6702;47.068;15.458;2023-04-16T14:29:18;15.40;75.70
13268;DHT22;6702;47.068;15.458;2023-04-16T14:32:21;15.40;76.30
13268;DHT22;6702;47.068;15.458;2023-04-16T14:35:25;15.50;76.10
13268;DHT22;6702;47.068;15.458;2023-04-16T14:38:29;15.60;75.10
13268;DHT22;6702;47.068;15.458;2023-04-16T14:41:34;15.60;73.30
13268;DHT22;6702;47.068;15.458;2023-04-16T14:44:37;15.80;74.30
13268;DHT22;6702;47.068;15.458;2023-04-16T14:47:41;15.90;73.70
13268;DHT22;6702;47.068;15.458;2023-04-16T14:50:48;15.70;72.80
13268;DHT22;6702;47.068;15.458;2023-04-16T14:53:51;15.40;74.00
13268;DHT22;6702;47.068;15.458;2023-04-16T14:56:56;15.50;73.50
13268;DHT22;6702;47.068;15.458;2023-04-16T14:59:59;15.50;73.90
13268;DHT22;6702;47.068;15.458;2023-04-16T15:03:03;15.30;74.10
13268;DHT22;6702;47.068;15.458;2023-04-16T15:06:07;14.90;75.40
13268;DHT22;6702;47.068;15.458;2023-04-16T15:09:12;14.60;76.70
13268;DHT22;6702;47.068;15.458;2023-04-16T15:12:16;14.40;78.10
13268;DHT22;6702;47.068;15.458;2023-04-16T15:15:20;14.30;78.30
13268;DHT22;6702;47.068;15.458;2023-04-16T15:18:24;14.00;79.60
13268;DHT22;6702;47.068;15.458;2023-04-16T15:21:28;13.90;80.90
13268;DHT22;6702;47.068;15.458;2023-04-16T15:24:33;13.90;81.50
13268;DHT22;6702;47.068;15.458;2023-04-16T15:27:38;13.90;82.30
13268;DHT22;6702;47.068;15.458;2023-04-16T15:30:43;13.90;81.90
13268;DHT22;6702;47.068;15.458;2023-04-16T15:33:48;13.80;82.70
13268;DHT22;6702;47.068;15.458;2023-04-16T15:36:51;13.80;83.80
13268;DHT22;6702;47.068;15.458;2023-04-16T15:39:56;13.80;84.10
13268;DHT22;6702;47.068;15.458;2023-04-16T15:43:00;13.70;85.50
13268;DHT22;6702;47.068;15.458;2023-04-16T15:46:04;13.70;86.40
13268;DHT22;6702;47.068;15.458;2023-04-16T15:49:10;13.60;86.50
13268;DHT22;6702;47.068;15.458;2023-04-16T15:52:14;13.60;87.60
13268;DHT22;6702;47.068;15.458;2023-04-16T15:55:18;13.70;87.50
13268;DHT22;6702;47.068;15.458;2023-04-16T15:58:23;13.60;88.00
13268;DHT22;6702;47.068;15.458;2023-04-16T16:01:27;13.80;88.90
13268;DHT22;6702;47.068;15.458;2023-04-16T16:04:31;13.80;88.30
13268;DHT22;6702;47.068;15.458;2023-04-16T16:07:36;13.90;88.30
13268;DHT22;6702;47.068;15.458;2023-04-16T16:10:39;13.80;87.70
13268;DHT22;6702;47.068;15.458;2023-04-16T16:13:45;13.70;87.60
13268;DHT22;6702;47.068;15.458;2023-04-16T16:16:49;13.70;88.30
13268;DHT22;6702;47.068;15.458;2023-04-16T16:19:52;13.60;88.60
13268;DHT22;6702;47.068;15.458;2023-04-16T16:22:58;13.50;87.60
13268;DHT22;6702;47.068;15.458;2023-04-16T16:26:02;13.30;88.10
13268;DHT22;6702;47.068;15.458;2023-04-16T16:29:11;13.10;89.10
13268;DHT22;6702;47.068;15.458;2023-04-16T16:32:15;13.10;89.80
13268;DHT22;6702;47.068;15.458;2023-04-16T16:35:19;13.00;89.70
13268;DHT22;6702;47.068;15.458;2023-04-16T16:38:23;13.00;90.00
13268;DHT22;6702;47.068;15.458;2023-04-16T16:41:28;13.00;89.90
13268;DHT22;6702;47.068;15.458;2023-04-16T16:44:34;13.10;90.00
13268;DHT22;6702;47.068;15.458;2023-04-16T16:47:37;13.10;89.50
13268;DHT22;6702;47.068;15.458;2023-04-16T16:50:41;13.10;89.80
13268;DHT22;6702;47.068;15.458;2023-04-16T16:53:46;13.10;89.90
13268;DHT22;6702;47.068;15.458;2023-04-16T16:56:51;13.10;89.60
13268;DHT22;6702;47.068;15.458;2023-04-16T16:59:57;13.00;90.00
13268;DHT22;6702;47.068;15.458;2023-04-16T17:03:01;13.00;90.10
13268;DHT22;6702;47.068;15.458;2023-04-16T17:06:06;13.00;90.30
13268;DHT22;6702;47.068;15.458;2023-04-16T17:09:10;13.00;90.70
13268;DHT22;6702;47.068;15.458;2023-04-16T17:12:14;13.00;90.60
13268;DHT22;6702;47.068;15.458;2023-04-16T17:15:19;13.00;90.70
13268;DHT22;6702;47.068;15.458;2023-04-16T17:18:23;13.00;90.80
13268;DHT22;6702;47.068;15.458;2023-04-16T17:21:30;13.00;90.90
13268;DHT22;6702;47.068;15.458;2023-04-16T17:24:35;13.00;90.70
13268;DHT22;6702;47.068;15.458;2023-04-16T17:27:39;13.00;91.00
13268;DHT22;6702;47.068;15.458;2023-04-16T17:30:44;13.00;91.40
13268;DHT22;6702;47.068;15.458;2023-04-16T17:33:49;13.00;91.50
13268;DHT22;6702;47.068;15.458;2023-04-16T17:36:53;12.90;91.60
13268;DHT22;6702;47.068;15.458;2023-04-16T17:39:57;12.90;91.90
13268;DHT22;6702;47.068;15.458;2023-04-16T17:43:01;12.90;92.10
13268;DHT22;6702;47.068;15.458;2023-04-16T17:46:08;12.80;92.30
13268;DHT22;6702;47.068;15.458;2023-04-16T17:49:14;12.70;92.50
13268;DHT22;6702;47.068;15.458;2023-04-16T17:59:06;12.50;93.70
13268;DHT22;6702;47.068;15.458;2023-04-16T18:02:11;12.50;93.60
13268;DHT22;6702;47.068;15.458;2023-04-16T18:05:15;12.60;93.50
13268;DHT22;6702;47.068;15.458;2023-04-16T18:08:22;12.60;93.50
13268;DHT22;6702;47.068;15.458;2023-04-16T18:11:31;12.50;93.40
13268;DHT22;6702;47.068;15.458;2023-04-16T18:14:38;12.50;93.40
13268;DHT22;6702;47.068;15.458;2023-04-16T18:17:45;12.40;93.70
13268;DHT22;6702;47.068;15.458;2023-04-16T18:20:51;12.40;93.80
13268;DHT22;6702;47.068;15.458;2023-04-16T18:23:55;12.40;93.90
13268;DHT22;6702;47.068;15.458;2023-04-16T18:26:59;12.30;94.10
13268;DHT22;6702;47.068;15.458;2023-04-16T18:30:06;12.30;94.40
13268;DHT22;6702;47.068;15.458;2023-04-16T18:33:10;12.30;94.80
13268;DHT22;6702;47.068;15.458;2023-04-16T18:36:17;12.30;94.90
13268;DHT22;6702;47.068;15.458;2023-04-16T18:39:22;12.20;95.20
13268;DHT22;6702;47.068;15.458;2023-04-16T18:42:28;12.20;95.50
13268;DHT22;6702;47.068;15.458;2023-04-16T18:45:34;12.20;95.80
13268;DHT22;6702;47.068;15.458;2023-04-16T18:48:41;12.20;96.00
13268;DHT22;6702;47.068;15.458;2023-04-16T18:51:47;12.10;96.00
13268;DHT22;6702;47.068;15.458;2023-04-16T18:54:51;12.10;96.60
13268;DHT22;6702;47.068;15.458;2023-04-16T18:57:54;12.00;96.50
13268;DHT22;6702;47.068;15.458;2023-04-16T19:00:59;12.00;96.70
13268;DHT22;6702;47.068;15.458;2023-04-16T19:04:04;12.00;97.00
13268;DHT22;6702;47.068;15.458;2023-04-16T19:07:07;12.00;97.30
13268;DHT22;6702;47.068;15.458;2023-04-16T19:10:11;12.00;97.50
13268;DHT22;6702;47.068;15.458;2023-04-16T19:13:15;12.00;97.60
13268;DHT22;6702;47.068;15.458;2023-04-16T19:16:20;12.00;97.90
13268;DHT22;6702;47.068;15.458;2023-04-16T19:19:25;12.00;98.10
13268;DHT22;6702;47.068;15.458;2023-04-16T19:22:29;12.00;98.20
13268;DHT22;6702;47.068;15.458;2023-04-16T19:25:32;11.90;98.50
13268;DHT22;6702;47.068;15.458;2023-04-16T19:28:38;11.90;98.60
13268;DHT22;6702;47.068;15.458;2023-04-16T19:31:45;11.90;98.80
13268;DHT22;6702;47.068;15.458;2023-04-16T19:34:49;11.80;99.30
13268;DHT22;6702;47.068;15.458;2023-04-16T19:37:53;11.80;99.10